sensor_id;sensor_type;location;lat;lon;timestamp;temperature;humidity
60909;DHT22;46780;48.128;-1.704;2022-11-04T09:34:02;17.00;60.30
60909;DHT22;46780;48.128;-1.704;2022-11-04T09:42:27;18.90;59.20
60909;DHT22;46780;48.128;-1.704;2022-11-04T09:43:55;19.00;58.70
60909;DHT22;46780;48.128;-1.704;2022-11-04T09:46:30;19.00;57.80
60909;DHT22;46780;48.128;-1.704;2022-11-04T09:49:01;19.00;57.30
60909;DHT22;46780;48.128;-1.704;2022-11-04T09:51:58;19.10;56.60
60909;DHT22;46780;48.128;-1.704;2022-11-04T09:54:21;19.00;56.40
60909;DHT22;46780;48.128;-1.704;2022-11-04T09:56:50;19.00;56.30
60909;DHT22;46780;48.128;-1.704;2022-11-04T09:59:26;19.00;56.00
60909;DHT22;46780;48.128;-1.704;2022-11-04T10:02:15;19.00;55.50
60909;DHT22;46780;48.128;-1.704;2022-11-04T10:04:51;19.00;55.40
60909;DHT22;46780;48.128;-1.704;2022-11-04T10:07:32;19.00;55.60
60909;DHT22;46780;48.128;-1.704;2022-11-04T10:12:45;19.10;55.60
60909;DHT22;46780;48.128;-1.704;2022-11-04T10:15:38;19.20;54.60
60909;DHT22;46780;48.128;-1.704;2022-11-04T10:18:17;19.30;54.30
60909;DHT22;46780;48.128;-1.704;2022-11-04T10:20:54;19.30;52.70
60909;DHT22;46780;48.128;-1.704;2022-11-04T10:23:27;19.30;52.00
60909;DHT22;46780;48.128;-1.704;2022-11-04T10:26:00;19.20;52.60
60909;DHT22;46780;48.128;-1.704;2022-11-04T10:28:37;19.30;52.20
60909;DHT22;46780;48.128;-1.704;2022-11-04T10:31:07;19.30;52.20
60909;DHT22;46780;48.128;-1.704;2022-11-04T10:33:38;19.40;51.60
60909;DHT22;46780;48.128;-1.704;2022-11-04T10:36:08;19.40;51.80
60909;DHT22;46780;48.128;-1.704;2022-11-04T10:38:37;19.50;52.00
60909;DHT22;46780;48.128;-1.704;2022-11-04T10:41:23;19.70;52.70
60909;DHT22;46780;48.128;-1.704;2022-11-04T10:43:56;19.90;53.30
60909;DHT22;46780;48.128;-1.704;2022-11-04T10:46:35;20.00;51.30
60909;DHT22;46780;48.128;-1.704;2022-11-04T10:49:13;20.00;50.70
60909;DHT22;46780;48.128;-1.704;2022-11-04T10:51:46;20.10;50.30
60909;DHT22;46780;48.128;-1.704;2022-11-04T10:54:12;20.10;50.00
60909;DHT22;46780;48.128;-1.704;2022-11-04T10:56:41;20.00;49.70
60909;DHT22;46780;48.128;-1.704;2022-11-04T10:59:19;19.90;49.30
60909;DHT22;46780;48.128;-1.704;2022-11-04T11:01:51;19.90;50.10
60909;DHT22;46780;48.128;-1.704;2022-11-04T11:04:26;19.90;49.30
60909;DHT22;46780;48.128;-1.704;2022-11-04T11:06:54;19.90;48.20
60909;DHT22;46780;48.128;-1.704;2022-11-04T11:09:23;20.00;46.90
60909;DHT22;46780;48.128;-1.704;2022-11-04T11:11:51;20.00;46.80
60909;DHT22;46780;48.128;-1.704;2022-11-04T11:14:31;20.10;47.30
60909;DHT22;46780;48.128;-1.704;2022-11-04T11:17:17;20.20;47.00
60909;DHT22;46780;48.128;-1.704;2022-11-04T11:19:47;20.30;47.00
60909;DHT22;46780;48.128;-1.704;2022-11-04T11:22:28;20.30;47.10
60909;DHT22;46780;48.128;-1.704;2022-11-04T11:25:19;20.30;47.40
60909;DHT22;46780;48.128;-1.704;2022-11-04T11:27:48;20.40;47.30
60909;DHT22;46780;48.128;-1.704;2022-11-04T11:30:21;20.40;47.60
60909;DHT22;46780;48.128;-1.704;2022-11-04T11:32:51;20.50;47.40
60909;DHT22;46780;48.128;-1.704;2022-11-04T11:35:21;20.70;47.70
60909;DHT22;46780;48.128;-1.704;2022-11-04T11:37:51;20.80;47.60
60909;DHT22;46780;48.128;-1.704;2022-11-04T11:40:26;20.90;47.20
60909;DHT22;46780;48.128;-1.704;2022-11-04T11:42:56;21.00;45.70
60909;DHT22;46780;48.128;-1.704;2022-11-04T11:45:24;21.00;46.20
60909;DHT22;46780;48.128;-1.704;2022-11-04T11:47:52;21.20;46.70
60909;DHT22;46780;48.128;-1.704;2022-11-04T11:50:23;21.30;46.60
60909;DHT22;46780;48.128;-1.704;2022-11-04T11:52:50;21.30;44.70
60909;DHT22;46780;48.128;-1.704;2022-11-04T11:55:26;21.00;44.10
60909;DHT22;46780;48.128;-1.704;2022-11-04T11:58:05;20.80;45.20
60909;DHT22;46780;48.128;-1.704;2022-11-04T12:00:56;20.70;45.40
60909;DHT22;46780;48.128;-1.704;2022-11-04T12:03:41;20.50;45.30
60909;DHT22;46780;48.128;-1.704;2022-11-04T12:06:29;20.40;46.30
60909;DHT22;46780;48.128;-1.704;2022-11-04T12:09:23;20.30;46.40
60909;DHT22;46780;48.128;-1.704;2022-11-04T12:12:09;20.10;46.50
60909;DHT22;46780;48.128;-1.704;2022-11-04T12:14:48;19.90;47.20
60909;DHT22;46780;48.128;-1.704;2022-11-04T12:17:27;19.60;48.30
60909;DHT22;46780;48.128;-1.704;2022-11-04T12:20:14;19.50;49.40
60909;DHT22;46780;48.128;-1.704;2022-11-04T12:22:48;19.70;50.90
60909;DHT22;46780;48.128;-1.704;2022-11-04T12:25:22;19.80;48.70
60909;DHT22;46780;48.128;-1.704;2022-11-04T12:27:54;19.90;48.10
60909;DHT22;46780;48.128;-1.704;2022-11-04T12:30:24;19.80;48.40
60909;DHT22;46780;48.128;-1.704;2022-11-04T12:33:03;19.90;49.10
60909;DHT22;46780;48.128;-1.704;2022-11-04T12:35:45;20.20;49.10
60909;DHT22;46780;48.128;-1.704;2022-11-04T12:38:37;20.60;48.50
60909;DHT22;46780;48.128;-1.704;2022-11-04T12:41:16;20.80;46.90
60909;DHT22;46780;48.128;-1.704;2022-11-04T12:43:51;20.80;46.30
60909;DHT22;46780;48.128;-1.704;2022-11-04T12:46:26;20.40;46.00
60909;DHT22;46780;48.128;-1.704;2022-11-04T12:49:23;20.10;46.70
60909;DHT22;46780;48.128;-1.704;2022-11-04T12:51:57;19.60;47.20
60909;DHT22;46780;48.128;-1.704;2022-11-04T12:54:41;19.30;48.20
60909;DHT22;46780;48.128;-1.704;2022-11-04T12:57:17;19.20;48.20
60909;DHT22;46780;48.128;-1.704;2022-11-04T13:00:04;19.10;48.40
60909;DHT22;46780;48.128;-1.704;2022-11-04T13:02:47;18.80;49.10
60909;DHT22;46780;48.128;-1.704;2022-11-04T13:05:37;18.80;50.10
60909;DHT22;46780;48.128;-1.704;2022-11-04T13:11:44;19.40;50.30
60909;DHT22;46780;48.128;-1.704;2022-11-04T13:14:17;19.60;48.90
60909;DHT22;46780;48.128;-1.704;2022-11-04T13:16:49;19.90;48.40
60909;DHT22;46780;48.128;-1.704;2022-11-04T13:19:23;20.00;47.50
60909;DHT22;46780;48.128;-1.704;2022-11-04T13:21:52;19.90;47.00
60909;DHT22;46780;48.128;-1.704;2022-11-04T13:24:24;19.70;46.30
60909;DHT22;46780;48.128;-1.704;2022-11-04T13:26:51;19.60;47.10
60909;DHT22;46780;48.128;-1.704;2022-11-04T13:29:20;19.50;47.30
60909;DHT22;46780;48.128;-1.704;2022-11-04T13:31:52;19.50;46.80
60909;DHT22;46780;48.128;-1.704;2022-11-04T13:34:27;19.70;46.00
60909;DHT22;46780;48.128;-1.704;2022-11-04T13:37:25;19.80;46.10
60909;DHT22;46780;48.128;-1.704;2022-11-04T13:39:58;20.10;45.80
60909;DHT22;46780;48.128;-1.704;2022-11-04T13:42:56;20.30;45.20
60909;DHT22;46780;48.128;-1.704;2022-11-04T13:45:25;20.30;45.20
60909;DHT22;46780;48.128;-1.704;2022-11-04T13:47:55;20.40;45.40
60909;DHT22;46780;48.128;-1.704;2022-11-04T13:50:32;20.60;45.40
60909;DHT22;46780;48.128;-1.704;2022-11-04T13:53:01;20.70;45.80
60909;DHT22;46780;48.128;-1.704;2022-11-04T13:55:28;20.70;44.60
60909;DHT22;46780;48.128;-1.704;2022-11-04T13:57:57;20.70;44.40
60909;DHT22;46780;48.128;-1.704;2022-11-04T14:00:26;20.50;44.60
60909;DHT22;46780;48.128;-1.704;2022-11-04T14:02:53;20.20;44.70
60909;DHT22;46780;48.128;-1.704;2022-11-04T14:06:00;19.90;45.20
60909;DHT22;46780;48.128;-1.704;2022-11-04T14:08:28;19.60;45.90
60909;DHT22;46780;48.128;-1.704;2022-11-04T14:11:04;19.30;46.90
60909;DHT22;46780;48.128;-1.704;2022-11-04T14:16:46;19.20;47.90
60909;DHT22;46780;48.128;-1.704;2022-11-04T14:22:20;19.40;47.50
60909;DHT22;46780;48.128;-1.704;2022-11-04T14:24:55;19.20;46.80
60909;DHT22;46780;48.128;-1.704;2022-11-04T14:27:29;19.00;46.80
60909;DHT22;46780;48.128;-1.704;2022-11-04T14:29:57;18.80;47.00
60909;DHT22;46780;48.128;-1.704;2022-11-04T14:32:29;18.60;47.60
60909;DHT22;46780;48.128;-1.704;2022-11-04T14:35:04;18.50;48.20
60909;DHT22;46780;48.128;-1.704;2022-11-04T14:37:33;18.50;48.70
60909;DHT22;46780;48.128;-1.704;2022-11-04T14:40:05;18.60;48.70
60909;DHT22;46780;48.128;-1.704;2022-11-04T14:42:54;18.70;48.50
60909;DHT22;46780;48.128;-1.704;2022-11-04T14:45:37;18.80;48.50
60909;DHT22;46780;48.128;-1.704;2022-11-04T14:48:11;18.80;49.50
60909;DHT22;46780;48.128;-1.704;2022-11-04T14:50:50;18.90;48.70
60909;DHT22;46780;48.128;-1.704;2022-11-04T14:53:22;19.10;48.60
60909;DHT22;46780;48.128;-1.704;2022-11-04T14:56:03;19.20;48.50
60909;DHT22;46780;48.128;-1.704;2022-11-04T14:58:30;19.20;48.00
60909;DHT22;46780;48.128;-1.704;2022-11-04T15:00:58;19.30;47.90
60909;DHT22;46780;48.128;-1.704;2022-11-04T15:03:26;19.30;47.80
60909;DHT22;46780;48.128;-1.704;2022-11-04T15:05:58;19.30;47.70
60909;DHT22;46780;48.128;-1.704;2022-11-04T15:08:26;19.30;47.80
60909;DHT22;46780;48.128;-1.704;2022-11-04T15:10:58;19.20;48.10
60909;DHT22;46780;48.128;-1.704;2022-11-04T15:13:27;19.20;48.50
60909;DHT22;46780;48.128;-1.704;2022-11-04T15:15:55;19.20;48.40
60909;DHT22;46780;48.128;-1.704;2022-11-04T15:19:02;19.30;48.20
60909;DHT22;46780;48.128;-1.704;2022-11-04T15:21:11;19.30;47.80
60909;DHT22;46780;48.128;-1.704;2022-11-04T15:23:41;19.20;47.70
60909;DHT22;46780;48.128;-1.704;2022-11-04T15:26:19;19.10;48.00
60909;DHT22;46780;48.128;-1.704;2022-11-04T15:28:49;19.10;48.30
60909;DHT22;46780;48.128;-1.704;2022-11-04T15:31:18;19.00;48.40
60909;DHT22;46780;48.128;-1.704;2022-11-04T15:33:51;18.90;48.40
60909;DHT22;46780;48.128;-1.704;2022-11-04T15:36:55;18.80;48.60
60909;DHT22;46780;48.128;-1.704;2022-11-04T15:39:25;18.80;49.00
60909;DHT22;46780;48.128;-1.704;2022-11-04T15:41:59;18.70;49.20
60909;DHT22;46780;48.128;-1.704;2022-11-04T15:44:30;18.60;49.50
60909;DHT22;46780;48.128;-1.704;2022-11-04T15:46:58;18.50;49.80
60909;DHT22;46780;48.128;-1.704;2022-11-04T15:49:26;18.40;50.00
60909;DHT22;46780;48.128;-1.704;2022-11-04T15:51:56;18.30;50.20
60909;DHT22;46780;48.128;-1.704;2022-11-04T15:54:25;18.20;50.10
60909;DHT22;46780;48.128;-1.704;2022-11-04T15:56:54;18.10;50.10
60909;DHT22;46780;48.128;-1.704;2022-11-04T15:59:24;18.00;50.30
60909;DHT22;46780;48.128;-1.704;2022-11-04T16:01:53;17.90;50.70
60909;DHT22;46780;48.128;-1.704;2022-11-04T16:04:22;17.80;51.00
60909;DHT22;46780;48.128;-1.704;2022-11-04T16:09:53;17.60;51.40
60909;DHT22;46780;48.128;-1.704;2022-11-04T16:12:25;17.40;51.90
60909;DHT22;46780;48.128;-1.704;2022-11-04T16:14:53;17.20;52.40
60909;DHT22;46780;48.128;-1.704;2022-11-04T16:17:23;17.10;52.90
60909;DHT22;46780;48.128;-1.704;2022-11-04T16:19:52;17.00;53.30
60909;DHT22;46780;48.128;-1.704;2022-11-04T16:22:23;16.80;53.70
60909;DHT22;46780;48.128;-1.704;2022-11-04T16:24:52;16.70;54.00
60909;DHT22;46780;48.128;-1.704;2022-11-04T16:27:20;16.60;54.40
60909;DHT22;46780;48.128;-1.704;2022-11-04T16:30:01;16.50;54.80
60909;DHT22;46780;48.128;-1.704;2022-11-04T16:32:38;16.40;55.20
60909;DHT22;46780;48.128;-1.704;2022-11-04T16:35:13;16.30;55.50
60909;DHT22;46780;48.128;-1.704;2022-11-04T16:37:40;16.20;55.80
60909;DHT22;46780;48.128;-1.704;2022-11-04T16:40:08;16.10;56.20
60909;DHT22;46780;48.128;-1.704;2022-11-04T16:42:34;16.00;56.50
60909;DHT22;46780;48.128;-1.704;2022-11-04T16:45:02;15.90;56.90
60909;DHT22;46780;48.128;-1.704;2022-11-04T17:49:01;15.80;57.20
60909;DHT22;46780;48.128;-1.704;2022-11-04T17:51:28;14.90;65.50
60909;DHT22;46780;48.128;-1.704;2022-11-04T17:53:55;14.80;65.60
60909;DHT22;46780;48.128;-1.704;2022-11-04T17:56:23;14.80;65.90
60909;DHT22;46780;48.128;-1.704;2022-11-04T17:58:51;14.70;66.20
60909;DHT22;46780;48.128;-1.704;2022-11-04T18:01:19;14.60;66.70
60909;DHT22;46780;48.128;-1.704;2022-11-04T18:08:39;14.50;67.10
60909;DHT22;46780;48.128;-1.704;2022-11-04T18:11:08;14.30;68.30
60909;DHT22;46780;48.128;-1.704;2022-11-04T18:13:36;14.20;69.00
60909;DHT22;46780;48.128;-1.704;2022-11-04T18:16:08;14.10;69.40
60909;DHT22;46780;48.128;-1.704;2022-11-04T18:18:35;14.20;69.70
60909;DHT22;46780;48.128;-1.704;2022-11-04T18:21:02;14.10;70.00
60909;DHT22;46780;48.128;-1.704;2022-11-04T18:23:28;14.10;70.20
60909;DHT22;46780;48.128;-1.704;2022-11-04T18:25:56;14.10;70.50
60909;DHT22;46780;48.128;-1.704;2022-11-04T18:28:23;14.10;70.60
60909;DHT22;46780;48.128;-1.704;2022-11-04T18:30:50;14.10;70.90
60909;DHT22;46780;48.128;-1.704;2022-11-04T18:33:17;14.10;71.10
60909;DHT22;46780;48.128;-1.704;2022-11-04T18:35:43;14.10;71.50
60909;DHT22;46780;48.128;-1.704;2022-11-04T18:38:11;14.00;72.30
60909;DHT22;46780;48.128;-1.704;2022-11-04T18:40:38;13.80;73.20
60909;DHT22;46780;48.128;-1.704;2022-11-04T18:43:04;13.60;73.70
60909;DHT22;46780;48.128;-1.704;2022-11-04T18:45:31;13.50;74.50
60909;DHT22;46780;48.128;-1.704;2022-11-04T18:47:59;13.50;74.70
60909;DHT22;46780;48.128;-1.704;2022-11-04T18:50:25;13.50;74.80
60909;DHT22;46780;48.128;-1.704;2022-11-04T18:52:53;13.50;74.80
60909;DHT22;46780;48.128;-1.704;2022-11-04T18:55:19;13.50;74.70
60909;DHT22;46780;48.128;-1.704;2022-11-04T18:57:46;13.50;74.80
60909;DHT22;46780;48.128;-1.704;2022-11-04T19:00:16;13.50;74.80
60909;DHT22;46780;48.128;-1.704;2022-11-04T19:02:42;13.40;75.10
60909;DHT22;46780;48.128;-1.704;2022-11-04T19:05:10;13.30;75.20
60909;DHT22;46780;48.128;-1.704;2022-11-04T19:07:37;13.30;75.50
60909;DHT22;46780;48.128;-1.704;2022-11-04T19:10:04;13.30;75.50
60909;DHT22;46780;48.128;-1.704;2022-11-04T19:12:30;13.20;75.40
60909;DHT22;46780;48.128;-1.704;2022-11-04T19:14:57;13.20;75.50
60909;DHT22;46780;48.128;-1.704;2022-11-04T19:17:23;13.10;75.60
60909;DHT22;46780;48.128;-1.704;2022-11-04T19:19:50;13.20;75.60
60909;DHT22;46780;48.128;-1.704;2022-11-04T19:22:18;13.20;75.50
60909;DHT22;46780;48.128;-1.704;2022-11-04T19:24:45;13.10;75.40
60909;DHT22;46780;48.128;-1.704;2022-11-04T19:27:11;13.10;75.60
60909;DHT22;46780;48.128;-1.704;2022-11-04T19:29:38;13.00;75.80
60909;DHT22;46780;48.128;-1.704;2022-11-04T19:32:04;12.90;76.00
60909;DHT22;46780;48.128;-1.704;2022-11-04T19:35:10;12.80;76.50
60909;DHT22;46780;48.128;-1.704;2022-11-04T19:37:39;12.70;76.80
60909;DHT22;46780;48.128;-1.704;2022-11-04T19:40:07;12.60;77.50
60909;DHT22;46780;48.128;-1.704;2022-11-04T19:42:34;12.50;78.20
60909;DHT22;46780;48.128;-1.704;2022-11-04T19:45:00;12.40;78.60
60909;DHT22;46780;48.128;-1.704;2022-11-04T19:47:27;12.30;79.00
60909;DHT22;46780;48.128;-1.704;2022-11-04T19:49:54;12.30;79.20
60909;DHT22;46780;48.128;-1.704;2022-11-04T19:52:20;12.30;79.20
60909;DHT22;46780;48.128;-1.704;2022-11-04T19:54:48;12.40;79.00
60909;DHT22;46780;48.128;-1.704;2022-11-04T19:57:14;12.30;79.10
60909;DHT22;46780;48.128;-1.704;2022-11-04T19:59:41;12.20;79.20
60909;DHT22;46780;48.128;-1.704;2022-11-04T20:02:09;12.20;79.70
60909;DHT22;46780;48.128;-1.704;2022-11-04T20:04:36;12.10;80.10
60909;DHT22;46780;48.128;-1.704;2022-11-04T20:07:03;12.00;80.40
60909;DHT22;46780;48.128;-1.704;2022-11-04T20:09:39;11.90;80.60
60909;DHT22;46780;48.128;-1.704;2022-11-04T20:12:07;11.90;80.60
60909;DHT22;46780;48.128;-1.704;2022-11-04T20:14:34;12.00;80.40
60909;DHT22;46780;48.128;-1.704;2022-11-04T20:17:00;11.90;80.30
60909;DHT22;46780;48.128;-1.704;2022-11-04T20:19:27;11.90;80.40
60909;DHT22;46780;48.128;-1.704;2022-11-04T20:21:54;11.80;80.50
60909;DHT22;46780;48.128;-1.704;2022-11-04T20:24:21;11.70;80.70
60909;DHT22;46780;48.128;-1.704;2022-11-04T20:26:47;11.70;81.00
60909;DHT22;46780;48.128;-1.704;2022-11-04T20:29:15;11.60;81.10
60909;DHT22;46780;48.128;-1.704;2022-11-04T20:31:43;11.60;81.30
60909;DHT22;46780;48.128;-1.704;2022-11-04T20:34:10;11.60;81.40
60909;DHT22;46780;48.128;-1.704;2022-11-04T20:36:37;11.70;81.40
60909;DHT22;46780;48.128;-1.704;2022-11-04T20:39:06;11.60;81.30
60909;DHT22;46780;48.128;-1.704;2022-11-04T20:41:32;11.60;81.40
60909;DHT22;46780;48.128;-1.704;2022-11-04T20:43:59;11.60;81.50
60909;DHT22;46780;48.128;-1.704;2022-11-04T20:46:29;11.50;81.80
60909;DHT22;46780;48.128;-1.704;2022-11-04T20:48:57;11.50;82.20
60909;DHT22;46780;48.128;-1.704;2022-11-04T20:51:25;11.40;82.20
60909;DHT22;46780;48.128;-1.704;2022-11-04T20:54:10;11.40;82.50
60909;DHT22;46780;48.128;-1.704;2022-11-04T20:56:38;11.30;82.80
60909;DHT22;46780;48.128;-1.704;2022-11-04T20:59:07;11.30;83.10
60909;DHT22;46780;48.128;-1.704;2022-11-04T21:01:38;11.20;83.00
60909;DHT22;46780;48.128;-1.704;2022-11-04T21:04:07;11.20;83.00
60909;DHT22;46780;48.128;-1.704;2022-11-04T21:06:35;11.20;83.00
60909;DHT22;46780;48.128;-1.704;2022-11-04T21:09:03;11.30;83.10
60909;DHT22;46780;48.128;-1.704;2022-11-04T21:11:30;11.40;82.80
60909;DHT22;46780;48.128;-1.704;2022-11-04T21:13:57;11.40;82.60
60909;DHT22;46780;48.128;-1.704;2022-11-04T21:16:24;11.40;82.30
60909;DHT22;46780;48.128;-1.704;2022-11-04T21:18:52;11.50;82.00
60909;DHT22;46780;48.128;-1.704;2022-11-04T21:21:18;11.40;81.50
60909;DHT22;46780;48.128;-1.704;2022-11-04T21:23:45;11.40;81.70
60909;DHT22;46780;48.128;-1.704;2022-11-04T21:26:14;11.30;81.70
60909;DHT22;46780;48.128;-1.704;2022-11-04T21:28:41;11.30;81.90
60909;DHT22;46780;48.128;-1.704;2022-11-04T21:31:10;11.30;82.00
60909;DHT22;46780;48.128;-1.704;2022-11-04T21:33:37;11.20;82.20
60909;DHT22;46780;48.128;-1.704;2022-11-04T21:36:07;11.20;82.30
60909;DHT22;46780;48.128;-1.704;2022-11-04T21:38:34;11.20;82.60
60909;DHT22;46780;48.128;-1.704;2022-11-04T21:41:01;11.10;82.70
60909;DHT22;46780;48.128;-1.704;2022-11-04T21:43:28;11.10;83.00
60909;DHT22;46780;48.128;-1.704;2022-11-04T21:46:00;11.00;83.20
60909;DHT22;46780;48.128;-1.704;2022-11-04T21:48:27;10.90;83.60
60909;DHT22;46780;48.128;-1.704;2022-11-04T21:50:53;10.90;84.00
60909;DHT22;46780;48.128;-1.704;2022-11-04T21:53:21;10.90;84.10
60909;DHT22;46780;48.128;-1.704;2022-11-04T21:55:47;10.90;84.20
60909;DHT22;46780;48.128;-1.704;2022-11-04T21:58:14;11.00;84.00
60909;DHT22;46780;48.128;-1.704;2022-11-04T22:00:41;11.00;83.90
60909;DHT22;46780;48.128;-1.704;2022-11-04T22:03:09;11.00;84.00
60909;DHT22;46780;48.128;-1.704;2022-11-04T22:05:35;11.00;83.90
60909;DHT22;46780;48.128;-1.704;2022-11-04T22:08:02;10.90;83.80
60909;DHT22;46780;48.128;-1.704;2022-11-04T22:10:30;11.00;83.90
60909;DHT22;46780;48.128;-1.704;2022-11-04T22:12:56;11.00;83.60
60909;DHT22;46780;48.128;-1.704;2022-11-04T22:15:23;11.00;83.70
60909;DHT22;46780;48.128;-1.704;2022-11-04T22:17:49;10.90;84.00
60909;DHT22;46780;48.128;-1.704;2022-11-04T22:20:16;10.80;84.10
60909;DHT22;46780;48.128;-1.704;2022-11-04T22:22:42;10.70;84.40
60909;DHT22;46780;48.128;-1.704;2022-11-04T22:25:09;10.70;84.80
60909;DHT22;46780;48.128;-1.704;2022-11-04T22:27:38;10.60;85.20
60909;DHT22;46780;48.128;-1.704;2022-11-04T22:30:05;10.60;85.50
60909;DHT22;46780;48.128;-1.704;2022-11-04T22:32:32;10.50;85.80
60909;DHT22;46780;48.128;-1.704;2022-11-04T22:34:58;10.40;86.20
60909;DHT22;46780;48.128;-1.704;2022-11-04T22:37:25;10.40;86.60
60909;DHT22;46780;48.128;-1.704;2022-11-04T22:39:51;10.40;86.80
60909;DHT22;46780;48.128;-1.704;2022-11-04T22:42:18;10.40;86.90
60909;DHT22;46780;48.128;-1.704;2022-11-04T22:44:46;10.40;86.80
60909;DHT22;46780;48.128;-1.704;2022-11-04T22:47:12;10.40;86.80
60909;DHT22;46780;48.128;-1.704;2022-11-04T22:49:39;10.40;86.90
60909;DHT22;46780;48.128;-1.704;2022-11-04T22:52:05;10.40;87.00
60909;DHT22;46780;48.128;-1.704;2022-11-04T22:54:32;10.30;87.10
60909;DHT22;46780;48.128;-1.704;2022-11-04T22:56:58;10.30;87.40
60909;DHT22;46780;48.128;-1.704;2022-11-04T22:59:25;10.30;87.60
60909;DHT22;46780;48.128;-1.704;2022-11-04T23:01:53;10.30;87.50
60909;DHT22;46780;48.128;-1.704;2022-11-04T23:04:20;10.30;87.50
60909;DHT22;46780;48.128;-1.704;2022-11-04T23:06:46;10.40;87.40
60909;DHT22;46780;48.128;-1.704;2022-11-04T23:09:13;10.40;86.90
60909;DHT22;46780;48.128;-1.704;2022-11-04T23:11:39;10.40;86.80
60909;DHT22;46780;48.128;-1.704;2022-11-04T23:14:09;10.40;86.70
60909;DHT22;46780;48.128;-1.704;2022-11-04T23:16:37;10.40;86.60
60909;DHT22;46780;48.128;-1.704;2022-11-04T23:19:05;10.40;86.40
60909;DHT22;46780;48.128;-1.704;2022-11-04T23:21:32;10.40;86.50
60909;DHT22;46780;48.128;-1.704;2022-11-04T23:23:58;10.40;86.40
60909;DHT22;46780;48.128;-1.704;2022-11-04T23:26:25;10.30;86.40
60909;DHT22;46780;48.128;-1.704;2022-11-04T23:28:52;10.30;86.50
60909;DHT22;46780;48.128;-1.704;2022-11-04T23:31:19;10.30;86.70
60909;DHT22;46780;48.128;-1.704;2022-11-04T23:33:45;10.20;87.70
60909;DHT22;46780;48.128;-1.704;2022-11-04T23:36:13;10.20;86.90
60909;DHT22;46780;48.128;-1.704;2022-11-04T23:38:40;10.10;87.20
60909;DHT22;46780;48.128;-1.704;2022-11-04T23:41:06;10.10;87.30
60909;DHT22;46780;48.128;-1.704;2022-11-04T23:43:33;10.10;87.40
60909;DHT22;46780;48.128;-1.704;2022-11-04T23:46:00;10.10;87.40
60909;DHT22;46780;48.128;-1.704;2022-11-04T23:48:27;10.10;87.50
60909;DHT22;46780;48.128;-1.704;2022-11-04T23:50:55;10.10;87.60
60909;DHT22;46780;48.128;-1.704;2022-11-04T23:53:23;10.10;87.70
60909;DHT22;46780;48.128;-1.704;2022-11-04T23:55:51;10.10;87.80
60909;DHT22;46780;48.128;-1.704;2022-11-04T23:58:17;10.10;87.90
